Flight Track Log - Related Links

Times and Time Zones

All times are in EDT time to prevent confusion due to time zone crossing. See the SWA1377 flight status page for this flight to view local times or setup timezone preferences in your user account.

Time Position Orientation Groundspeed Altitude Reporting Facility
EDT Latitude Longitude Course Direction KTS MPH feet Rate Location/Type
Sat 01:49:50 PM 34.9881 -106.6894 237° Southwest 221 254 7,500  Level Albuquerque Center
Sat 01:50:12 PM 34.9836 -106.7194 260° West 230 265 8,400 1,967 Climbing Albuquerque Center
Sat 01:50:51 PM 35.0086 -106.7697 301° West 295 339 9,500 1,935 Climbing Albuquerque Center
Sat 01:51:14 PM 35.0300 -106.7942 317° Northwest 289 333 10,400 1,869 Climbing Albuquerque Center
Sat 01:51:52 PM 35.0858 -106.8225 337° Northwest 354 407 11,400 1,742 Climbing Albuquerque Center
Sat 01:52:16 PM 35.1164 -106.8250 356° North 347 399 12,200 2,581 Climbing Albuquerque Center
Sat 01:53:18 PM 35.2164 -106.8419 352° North 365 420 15,100 2,710 Climbing Albuquerque Center
Sat 01:54:20 PM 35.3431 -106.8608 353° North 382 440 17,800 2,419 Climbing Albuquerque Center
Sat 01:55:22 PM 35.4469 -106.9067 340° North 399 459 20,100 2,274 Climbing Albuquerque Center
Sat 01:56:24 PM 35.5628 -106.9647 338° Northwest 416 479 22,500 2,081 Climbing Albuquerque Center
Sat 01:57:26 PM 35.6794 -107.0256 337° Northwest 429 494 24,400 1,790 Climbing Albuquerque Center
Sat 01:58:28 PM 35.7906 -107.0814 338° Northwest 442 509 26,200 1,694 Climbing Albuquerque Center
Sat 01:59:30 PM 35.9058 -107.1381 338° Northwest 455 524 27,900 1,645 Climbing Albuquerque Center
Sat 02:00:32 PM 36.0419 -107.2064 338° Northwest 467 537 29,600 1,355 Climbing Albuquerque Center
Sat 02:01:34 PM 36.1619 -107.2672 338° Northwest 479 551 30,700 1,355 Climbing Albuquerque Center
Sat 02:02:36 PM 36.3050 -107.3386 338° Northwest 492 566 32,400 1,548 Climbing Albuquerque Center
Sat 02:03:38 PM 36.4278 -107.4008 338° Northwest 496 571 33,900 1,548 Climbing Albuquerque Center
Sat 02:04:40 PM 36.5706 -107.4753 337° Northwest 498 573 35,600 1,500 Climbing Albuquerque Center
Sat 02:05:42 PM 36.6906 -107.5367 338° Northwest 492 566 37,000 1,091 Climbing Albuquerque Center
Sat 02:06:52 PM 36.8392 -107.6342 332° Northwest 479 551 38,000 455 Climbing Denver Center
Sat 02:07:54 PM 36.9361 -107.7356 320° Northwest 476 548 38,000  Level Denver Center
Sat 02:08:56 PM 37.0489 -107.8547 320° Northwest 476 548 38,000  Level Denver Center
Sat 02:09:58 PM 37.1444 -107.9556 320° Northwest 472 543 38,000  Level Denver Center
Sat 02:11:01 PM 37.2558 -108.0769 319° Northwest 474 545 38,000  Level Denver Center
Sat 02:12:03 PM 37.3508 -108.1769 320° Northwest 467 537 38,000  Level Denver Center
Sat 02:13:05 PM 37.4597 -108.2950 319° Northwest 463 533 38,000  Level Denver Center
Sat 02:14:07 PM 37.5528 -108.3969 319° Northwest 463 533 38,000  Level Denver Center
Sat 02:15:09 PM 37.6603 -108.5097 320° Northwest 453 521 38,000  Level Denver Center
Sat 02:16:11 PM 37.7531 -108.6128 319° Northwest 460 529 38,000  Level Denver Center
Sat 02:17:13 PM 37.8597 -108.7303 319° Northwest 458 527 38,000  Level Denver Center
Sat 02:18:15 PM 37.9525 -108.8308 319° Northwest 458 527 38,000  Level Denver Center
Sat 02:19:17 PM 38.0575 -108.9461 319° Northwest 458 527 38,000  Level Denver Center
Sat 02:20:19 PM 38.1500 -109.0514 318° Northwest 464 534 38,000  Level Denver Center
Sat 02:21:21 PM 38.2589 -109.1711 319° Northwest 463 533 38,000  Level Denver Center
Sat 02:22:23 PM 38.3514 -109.2736 319° Northwest 459 528 38,000  Level Denver Center
Sat 02:24:10 PM 38.5225 -109.4642 319° Northwest 463 533 38,000  Level Salt Lake Center
Sat 02:25:12 PM 38.6311 -109.5867 319° Northwest 464 534 38,000  Level Salt Lake Center
Sat 02:26:14 PM 38.7239 -109.6914 319° Northwest 464 534 38,000  Level Salt Lake Center
Sat 02:27:16 PM 38.8169 -109.7978 318° Northwest 464 534 38,000  Level Salt Lake Center
Sat 02:28:18 PM 38.9242 -109.9206 318° Northwest 463 533 38,000  Level Salt Lake Center
Sat 02:29:20 PM 39.0169 -110.0253 319° Northwest 463 533 38,000  Level Salt Lake Center
Sat 02:30:22 PM 39.1247 -110.1497 318° Northwest 463 533 38,000  Level Salt Lake Center
Sat 02:31:24 PM 39.2178 -110.2561 318° Northwest 465 535 38,000  Level Salt Lake Center
Sat 02:32:26 PM 39.3250 -110.3808 318° Northwest 464 534 38,000  Level Salt Lake Center
Sat 02:33:27 PM 39.4175 -110.4881 318° Northwest 467 537 38,000  Level Salt Lake Center
Sat 02:34:29 PM 39.5253 -110.6122 318° Northwest 464 534 38,000  Level Salt Lake Center
Sat 02:35:31 PM 39.6167 -110.7189 318° Northwest 462 532 38,000  Level Salt Lake Center
Sat 02:36:33 PM 39.7072 -110.8258 318° Northwest 460 529 38,000  Level Salt Lake Center
Sat 02:37:35 PM 39.8133 -110.9506 318° Northwest 460 529 38,000  Level Salt Lake Center
Sat 02:38:37 PM 39.9033 -111.0586 317° Northwest 459 528 38,000  Level Salt Lake Center
Sat 02:39:39 PM 40.0086 -111.1833 318° Northwest 457 526 38,000  Level Salt Lake Center
Sat 02:40:41 PM 40.1014 -111.2942 318° Northwest 459 528 38,000  Level Salt Lake Center
Sat 02:41:42 PM 40.1961 -111.4044 318° Northwest 455 524 38,000  Level Salt Lake Center
Sat 02:42:44 PM 40.2911 -111.5172 318° Northwest 461 531 38,000  Level Salt Lake Center
Sat 02:43:46 PM 40.3853 -111.6322 317° Northwest 463 533 38,000  Level Salt Lake Center
Sat 02:44:48 PM 40.4778 -111.7467 317° Northwest 457 526 38,000  Level Salt Lake Center
Sat 02:45:50 PM 40.5886 -111.8828 317° Northwest 452 520 38,000  Level Salt Lake Center
Sat 02:46:52 PM 40.6828 -111.9981 317° Northwest 461 531 38,000  Level Salt Lake Center
Sat 02:47:54 PM 40.7764 -112.1161 316° Northwest 468 539 38,000  Level Salt Lake Center
Sat 02:48:55 PM 40.8722 -112.2328 317° Northwest 463 533 38,000  Level Salt Lake Center
Sat 02:49:57 PM 40.9667 -112.3483 317° Northwest 459 528 38,000  Level Salt Lake Center
Sat 02:50:59 PM 41.0617 -112.4650 317° Northwest 463 533 38,000  Level Salt Lake Center
Sat 02:52:01 PM 41.1544 -112.5814 317° Northwest 459 528 38,000  Level Salt Lake Center
Sat 02:53:03 PM 41.2489 -112.7006 317° Northwest 466 536 38,000  Level Salt Lake Center
Sat 02:54:04 PM 41.3619 -112.8411 317° Northwest 464 534 38,000  Level Salt Lake Center
Sat 02:55:06 PM 41.4550 -112.9608 316° Northwest 466 536 38,000  Level Salt Lake Center
Sat 02:56:08 PM 41.5478 -113.0797 316° Northwest 464 534 38,000  Level Salt Lake Center
Sat 02:57:10 PM 41.6428 -113.2000 317° Northwest 469 540 38,000  Level Salt Lake Center
Sat 02:58:11 PM 41.7378 -113.3217 316° Northwest 473 544 38,000  Level Salt Lake Center
Sat 02:59:13 PM 41.8325 -113.4422 317° Northwest 470 541 38,000  Level Salt Lake Center
Sat 03:00:15 PM 41.9253 -113.5636 316° Northwest 467 537 38,000  Level Salt Lake Center
Sat 03:01:17 PM 42.0372 -113.7081 316° Northwest 466 536 38,000  Level Salt Lake Center
Sat 03:02:18 PM 42.1283 -113.8275 316° Northwest 461 531 38,000 195 Level Salt Lake Center
Sat 03:03:20 PM 42.2200 -113.9458 316° Northwest 457 526 38,400 629 Climbing Salt Lake Center
Sat 03:04:22 PM 42.3122 -114.0683 316° Northwest 464 534 39,300 780 Climbing Salt Lake Center
Sat 03:05:23 PM 42.4028 -114.1914 315° West 465 535 40,000 341 Climbing Salt Lake Center
Sat 03:06:25 PM 42.4936 -114.3106 316° Northwest 457 526 40,000  Level Salt Lake Center
Sat 03:07:27 PM 42.5828 -114.4314 315° West 454 522 40,000  Level Salt Lake Center
Sat 03:08:29 PM 42.6886 -114.5728 316° Northwest 454 522 40,000  Level Salt Lake Center
Sat 03:09:30 PM 42.7778 -114.6922 316° Northwest 449 517 40,000  Level Salt Lake Center
Sat 03:10:32 PM 42.8658 -114.8097 316° Northwest 444 511 40,000  Level Salt Lake Center
Sat 03:11:34 PM 42.9536 -114.9292 315° West 449 517 40,000  Level Salt Lake Center
Sat 03:12:35 PM 43.0408 -115.0475 315° West 443 510 40,000  Level Salt Lake Center
Sat 03:13:37 PM 43.1272 -115.1661 315° West 442 509 40,000  Level Salt Lake Center
Sat 03:14:39 PM 43.2150 -115.2858 315° West 444 511 40,000  Level Salt Lake Center
Sat 03:15:40 PM 43.3186 -115.4306 315° West 443 510 40,000  Level Salt Lake Center
Sat 03:16:42 PM 43.4056 -115.5514 315° West 443 510 40,000  Level Salt Lake Center
Sat 03:17:44 PM 43.4925 -115.6731 315° West 447 514 40,000  Level Salt Lake Center
Sat 03:18:46 PM 43.5806 -115.7961 315° West 449 517 40,000  Level Salt Lake Center
Sat 03:19:47 PM 43.6681 -115.9203 314° West 450 518 40,000  Level Salt Lake Center
Sat 03:20:49 PM 43.7567 -116.0447 315° West 452 520 40,000  Level Salt Lake Center
Sat 03:21:50 PM 43.8447 -116.1700 314° West 452 520 40,000  Level Salt Lake Center
Sat 03:22:52 PM 43.9333 -116.2969 314° West 454 522 40,000  Level Salt Lake Center
Sat 03:23:54 PM 44.0231 -116.4253 314° West 459 528 40,000  Level Salt Lake Center
Sat 03:24:55 PM 44.1311 -116.5803 314° West 463 533 40,000  Level Salt Lake Center
Sat 03:25:57 PM 44.2192 -116.7081 314° West 456 525 40,000  Level Salt Lake Center
Sat 03:26:59 PM 44.3081 -116.8367 314° West 456 525 40,000  Level Salt Lake Center
Sat 03:28:00 PM 44.3969 -116.9675 314° West 459 528 40,000  Level Salt Lake Center
Sat 03:29:02 PM 44.4861 -117.0969 314° West 461 531 40,000  Level Salt Lake Center
Sat 03:30:03 PM 44.5736 -117.2258 314° West 458 527 40,000  Level Salt Lake Center
Sat 03:31:05 PM 44.6597 -117.3517 314° West 452 520 40,000  Level Salt Lake Center
Sat 03:32:06 PM 44.7458 -117.4786 314° West 449 517 40,000  Level Salt Lake Center
Sat 03:33:08 PM 44.8303 -117.6064 313° West 447 514 40,000  Level Salt Lake Center
Sat 03:34:09 PM 44.9336 -117.7611 313° West 451 519 40,000  Level Salt Lake Center
Sat 03:35:11 PM 45.0189 -117.8894 313° West 450 518 40,000  Level Salt Lake Center
Sat 03:36:12 PM 45.1036 -118.0178 313° West 447 514 40,000  Level Salt Lake Center
Sat 03:37:14 PM 45.1864 -118.1439 313° West 445 512 40,000  Level Salt Lake Center
Sat 03:38:15 PM 45.2683 -118.2711 312° West 443 510 40,000  Level Seattle Center
Sat 03:39:16 PM 45.3494 -118.3967 313° West 438 504 40,000  Level Seattle Center
Sat 03:40:17 PM 45.4317 -118.5247 312° West 438 504 40,000  Level Seattle Center
Sat 03:41:18 PM 45.5139 -118.6519 313° West 440 506 40,000  Level Seattle Center
Sat 03:42:19 PM 45.5961 -118.7783 313° West 439 505 40,000  Level Seattle Center
Sat 03:43:20 PM 45.6942 -118.9317 313° West 440 506 40,000  Level Seattle Center
Sat 03:44:21 PM 45.7728 -119.0653 310° West 441 507 40,000  Level Seattle Center
Sat 03:45:22 PM 45.8511 -119.1986 310° West 441 507 40,000  Level Seattle Center
Sat 03:46:23 PM 45.9303 -119.3336 310° West 444 511 40,000  Level Seattle Center
Sat 03:47:24 PM 46.0100 -119.4697 310° West 449 517 40,000  Level Seattle Center
Sat 03:48:25 PM 46.0875 -119.6036 310° West 443 510 40,000  Level Seattle Center
Sat 03:49:26 PM 46.1647 -119.7375 310° West 437 503 40,000 -984 Level Seattle Center
Sat 03:50:27 PM 46.2422 -119.8703 310° West 436 502 38,000 -2,262 Descending Seattle Center
Sat 03:51:28 PM 46.3186 -120.0044 310° West 435 501 35,400 -2,361 Descending Seattle Center
Sat 03:52:29 PM 46.3944 -120.1353 310° West 430 495 33,200 -2,066 Descending Seattle Center
Sat 03:53:30 PM 46.4647 -120.2622 309° West 416 479 31,200 -2,115 Descending Seattle Center
Sat 03:54:31 PM 46.5472 -120.4078 310° West 393 452 28,900 -2,098 Descending Seattle Center
Sat 03:55:33 PM 46.6111 -120.5308 307° West 371 427 26,900 -1,820 Descending Seattle Center
Sat 03:56:33 PM 46.6644 -120.6464 304° West 362 417 25,200 -1,736 Descending Seattle Center
Sat 03:57:34 PM 46.7194 -120.7575 306° West 344 396 23,400 -1,623 Descending Seattle Center
Sat 03:58:35 PM 46.8044 -120.8167 335° Northwest 338 389 21,900 -1,426 Descending Seattle Center
Sat 03:59:36 PM 46.8833 -120.8694 335° Northwest 322 371 20,500 -1,377 Descending Seattle Center
Sat 04:00:37 PM 46.9017 -120.9939 282° West 323 372 19,100 -1,180 Descending Seattle Center
Sat 04:01:38 PM 46.8875 -121.1189 261° West 332 382 18,100 -1,279 Descending Seattle Center
Sat 04:02:39 PM 46.9375 -121.2233 305° West 315 362 16,500 -1,623 Descending Seattle Center
Sat 04:03:40 PM 46.9831 -121.3286 302° West 307 353 14,800 -1,770 Descending Seattle Center
Sat 04:04:41 PM 47.0408 -121.4431 307° West 301 346 12,900 -1,810 Descending Seattle Center
Sat 04:04:43 PM 47.0417 -121.4442 318° Northwest 298 343 12,900 -787 Level Seattle Center
Sat 04:05:42 PM 47.0861 -121.5414 304° West 293 337 12,100 -787 Descending Seattle Center
Sat 04:05:44 PM 47.0889 -121.5481 301° West 290 334 12,100 -105 Level Seattle Center
Sat 04:06:39 PM 47.1250 -121.6258 304° West 275 316 12,000  Descending Seattle Center
Sat 04:06:43 PM 47.1306 -121.6406 299° West 274 315 12,100  Climbing Seattle Center
Sat 04:07:39 PM 47.1722 -121.7300 304° West 280 322 12,000 -98 Descending Seattle Center
Sat 04:07:44 PM 47.1753 -121.7369 303° West 284 327 12,000 -1,770 Level Seattle Center
Sat 04:08:40 PM 47.1817 -121.8425 275° West 286 329 10,200 -1,869 Descending Seattle Center
Sat 04:08:45 PM 47.1839 -121.8517 290° West 284 327 10,100 -1,636 Descending Seattle Center
Sat 04:09:46 PM 47.1922 -121.9628 276° West 276 318 8,400 -1,645 Descending Seattle Center
Sat 04:09:47 PM 47.1928 -121.9636 314° West 275 316 8,400 -1,672 Level Seattle Center
Sat 04:10:47 PM 47.2019 -122.0714 277° West 269 310 6,700 -1,869 Descending Seattle Center
Sat 04:10:48 PM 47.2011 -122.0733 238° Southwest 269 310 6,500 -1,258 Descending Seattle Center
Sat 04:11:49 PM 47.2131 -122.1878 279° West 268 308 5,400 -985 Descending Seattle Center
Sat 04:11:55 PM 47.2131 -122.1975 270° West 263 303 5,400 -873 Level Seattle Center
Sat 04:12:44 PM 47.2222 -122.2772 280° West 238 274 4,600 -982 Descending Seattle Center
Sat 04:12:50 PM 47.2244 -122.2847 294° West 244 281 4,500 -1,082 Descending Seattle Center
Sat 04:13:45 PM 47.2689 -122.3297 326° Northwest 217 250 3,500 -984 Descending Seattle Center
Sat 04:13:51 PM 47.2736 -122.3272 20° North 216 249 3,500 -716 Level Seattle Center
Sat 04:14:52 PM 47.3258 -122.3178 North 191 220 2,700 -885 Descending Seattle Center
Sat 04:15:53 PM 47.3728 -122.3181 360° North 171 197 1,700 -835 Descending Seattle Center
Sat 04:16:47 PM 47.4083 -122.3186 359° North 134 154 1,100 -689 Descending Seattle Center
Sat 04:16:54 PM 47.4139 -122.3186 360° North 139 160 1,000 -618 Descending Seattle Center
Sat 04:17:55 PM 47.4536 -122.3183 360° North 138 159 400 -590 Descending Seattle Center
Sat 04:19:00 PM 47.4499 -122.3118 146° Southeast  Level Estimated

Login

Don't have an account? Register now (free) for customized features, flight alerts, and more!